sensor_id;sensor_type;location;lat;lon;timestamp;P1;durP1;ratioP1;P2;durP2;ratioP2
24713;SDS011;12820;51.580;5.010;2023-06-14T00:02:15;6.13;;;3.35;;
24713;SDS011;12820;51.580;5.010;2023-06-14T00:07:17;8.27;;;3.70;;
24713;SDS011;12820;51.580;5.010;2023-06-14T00:12:20;9.60;;;3.55;;
24713;SDS011;12820;51.580;5.010;2023-06-14T00:17:22;10.38;;;3.42;;
24713;SDS011;12820;51.580;5.010;2023-06-14T00:22:24;5.50;;;3.38;;
24713;SDS011;12820;51.580;5.010;2023-06-14T00:27:27;8.88;;;3.85;;
24713;SDS011;12820;51.580;5.010;2023-06-14T00:32:29;6.32;;;3.53;;
24713;SDS011;12820;51.580;5.010;2023-06-14T00:37:31;10.10;;;3.70;;
24713;SDS011;12820;51.580;5.010;2023-06-14T00:42:34;14.98;;;3.63;;
24713;SDS011;12820;51.580;5.010;2023-06-14T00:47:36;7.40;;;3.80;;
24713;SDS011;12820;51.580;5.010;2023-06-14T00:52:40;7.93;;;3.72;;
24713;SDS011;12820;51.580;5.010;2023-06-14T00:57:42;7.35;;;3.30;;
24713;SDS011;12820;51.580;5.010;2023-06-14T01:02:45;6.10;;;3.53;;
24713;SDS011;12820;51.580;5.010;2023-06-14T01:18:35;9.32;;;3.88;;
24713;SDS011;12820;51.580;5.010;2023-06-14T01:23:37;5.70;;;3.30;;
24713;SDS011;12820;51.580;5.010;2023-06-14T01:28:39;8.52;;;3.28;;
24713;SDS011;12820;51.580;5.010;2023-06-14T01:33:42;7.75;;;3.58;;
24713;SDS011;12820;51.580;5.010;2023-06-14T01:38:45;7.28;;;2.78;;
24713;SDS011;12820;51.580;5.010;2023-06-14T01:43:48;7.10;;;3.40;;
24713;SDS011;12820;51.580;5.010;2023-06-14T01:48:51;6.90;;;3.50;;
24713;SDS011;12820;51.580;5.010;2023-06-14T01:53:54;7.32;;;3.42;;
24713;SDS011;12820;51.580;5.010;2023-06-14T01:58:57;8.65;;;3.42;;
24713;SDS011;12820;51.580;5.010;2023-06-14T02:04:00;6.88;;;3.30;;
24713;SDS011;12820;51.580;5.010;2023-06-14T02:09:02;5.72;;;3.17;;
24713;SDS011;12820;51.580;5.010;2023-06-14T02:14:05;7.07;;;3.17;;
24713;SDS011;12820;51.580;5.010;2023-06-14T02:19:08;6.95;;;3.00;;
24713;SDS011;12820;51.580;5.010;2023-06-14T02:24:11;8.88;;;3.42;;
24713;SDS011;12820;51.580;5.010;2023-06-14T02:29:13;6.85;;;3.45;;
24713;SDS011;12820;51.580;5.010;2023-06-14T02:34:16;8.10;;;3.42;;
24713;SDS011;12820;51.580;5.010;2023-06-14T02:39:21;9.95;;;3.25;;
24713;SDS011;12820;51.580;5.010;2023-06-14T02:44:25;8.20;;;3.30;;
24713;SDS011;12820;51.580;5.010;2023-06-14T02:49:34;7.90;;;3.40;;
24713;SDS011;12820;51.580;5.010;2023-06-14T02:54:36;8.65;;;3.00;;
24713;SDS011;12820;51.580;5.010;2023-06-14T02:59:39;7.78;;;3.33;;
24713;SDS011;12820;51.580;5.010;2023-06-14T03:04:42;7.68;;;3.13;;
24713;SDS011;12820;51.580;5.010;2023-06-14T03:09:49;7.75;;;3.20;;
24713;SDS011;12820;51.580;5.010;2023-06-14T03:14:53;8.45;;;3.53;;
24713;SDS011;12820;51.580;5.010;2023-06-14T03:20:00;8.18;;;3.30;;
24713;SDS011;12820;51.580;5.010;2023-06-14T03:25:02;6.68;;;3.10;;
24713;SDS011;12820;51.580;5.010;2023-06-14T03:30:09;6.57;;;3.20;;
24713;SDS011;12820;51.580;5.010;2023-06-14T03:35:12;7.90;;;3.55;;
24713;SDS011;12820;51.580;5.010;2023-06-14T03:40:20;10.75;;;3.58;;
24713;SDS011;12820;51.580;5.010;2023-06-14T03:45:28;7.38;;;3.30;;
24713;SDS011;12820;51.580;5.010;2023-06-14T03:50:32;6.38;;;3.38;;
24713;SDS011;12820;51.580;5.010;2023-06-14T03:55:34;5.85;;;3.28;;
24713;SDS011;12820;51.580;5.010;2023-06-14T04:00:40;6.60;;;3.75;;
24713;SDS011;12820;51.580;5.010;2023-06-14T04:05:42;6.97;;;3.00;;
24713;SDS011;12820;51.580;5.010;2023-06-14T04:10:44;7.47;;;3.47;;
24713;SDS011;12820;51.580;5.010;2023-06-14T04:15:49;6.75;;;3.50;;
24713;SDS011;12820;51.580;5.010;2023-06-14T04:20:57;7.55;;;3.60;;
24713;SDS011;12820;51.580;5.010;2023-06-14T04:26:00;6.93;;;3.13;;
24713;SDS011;12820;51.580;5.010;2023-06-14T04:31:04;10.73;;;3.40;;
24713;SDS011;12820;51.580;5.010;2023-06-14T04:36:08;6.97;;;2.88;;
24713;SDS011;12820;51.580;5.010;2023-06-14T04:41:11;8.63;;;3.50;;
24713;SDS011;12820;51.580;5.010;2023-06-14T04:46:17;9.07;;;3.30;;
24713;SDS011;12820;51.580;5.010;2023-06-14T04:51:19;9.00;;;3.95;;
24713;SDS011;12820;51.580;5.010;2023-06-14T04:56:24;7.90;;;3.30;;
24713;SDS011;12820;51.580;5.010;2023-06-14T05:01:31;13.07;;;3.28;;
24713;SDS011;12820;51.580;5.010;2023-06-14T05:06:35;7.95;;;3.30;;
24713;SDS011;12820;51.580;5.010;2023-06-14T05:11:38;8.90;;;3.38;;
24713;SDS011;12820;51.580;5.010;2023-06-14T05:16:40;6.70;;;3.33;;
24713;SDS011;12820;51.580;5.010;2023-06-14T05:21:43;7.93;;;3.55;;
24713;SDS011;12820;51.580;5.010;2023-06-14T05:26:45;12.55;;;3.67;;
24713;SDS011;12820;51.580;5.010;2023-06-14T05:31:47;7.90;;;3.22;;
24713;SDS011;12820;51.580;5.010;2023-06-14T05:36:49;9.35;;;3.35;;
24713;SDS011;12820;51.580;5.010;2023-06-14T05:41:51;14.98;;;3.58;;
24713;SDS011;12820;51.580;5.010;2023-06-14T05:46:54;7.28;;;3.45;;
24713;SDS011;12820;51.580;5.010;2023-06-14T05:51:56;6.95;;;3.50;;
24713;SDS011;12820;51.580;5.010;2023-06-14T05:56:58;6.35;;;3.35;;
24713;SDS011;12820;51.580;5.010;2023-06-14T06:02:03;11.75;;;3.08;;
24713;SDS011;12820;51.580;5.010;2023-06-14T06:07:06;8.63;;;3.47;;
24713;SDS011;12820;51.580;5.010;2023-06-14T06:12:08;8.48;;;3.40;;
24713;SDS011;12820;51.580;5.010;2023-06-14T06:17:10;6.80;;;3.22;;
24713;SDS011;12820;51.580;5.010;2023-06-14T06:22:12;8.73;;;3.80;;
24713;SDS011;12820;51.580;5.010;2023-06-14T06:27:15;6.93;;;3.40;;
24713;SDS011;12820;51.580;5.010;2023-06-14T06:32:17;12.02;;;3.42;;
24713;SDS011;12820;51.580;5.010;2023-06-14T06:37:19;7.20;;;3.50;;
24713;SDS011;12820;51.580;5.010;2023-06-14T06:42:21;8.82;;;3.90;;
24713;SDS011;12820;51.580;5.010;2023-06-14T06:47:25;8.48;;;3.65;;
24713;SDS011;12820;51.580;5.010;2023-06-14T06:52:28;7.35;;;3.70;;
24713;SDS011;12820;51.580;5.010;2023-06-14T06:57:31;8.27;;;3.22;;
24713;SDS011;12820;51.580;5.010;2023-06-14T07:02:33;7.20;;;3.42;;
24713;SDS011;12820;51.580;5.010;2023-06-14T07:07:35;14.48;;;3.65;;
24713;SDS011;12820;51.580;5.010;2023-06-14T07:12:37;9.52;;;4.03;;
24713;SDS011;12820;51.580;5.010;2023-06-14T07:17:41;11.95;;;4.38;;
24713;SDS011;12820;51.580;5.010;2023-06-14T07:22:44;7.28;;;3.72;;
24713;SDS011;12820;51.580;5.010;2023-06-14T07:27:46;7.45;;;4.30;;
24713;SDS011;12820;51.580;5.010;2023-06-14T07:32:48;8.00;;;3.60;;
24713;SDS011;12820;51.580;5.010;2023-06-14T07:37:51;11.50;;;4.15;;
24713;SDS011;12820;51.580;5.010;2023-06-14T07:42:54;11.60;;;3.65;;
24713;SDS011;12820;51.580;5.010;2023-06-14T07:47:56;10.90;;;3.70;;
24713;SDS011;12820;51.580;5.010;2023-06-14T07:52:59;11.30;;;3.95;;
24713;SDS011;12820;51.580;5.010;2023-06-14T07:58:01;12.95;;;3.40;;
24713;SDS011;12820;51.580;5.010;2023-06-14T08:03:04;9.50;;;3.58;;
24713;SDS011;12820;51.580;5.010;2023-06-14T08:08:06;16.73;;;3.75;;
24713;SDS011;12820;51.580;5.010;2023-06-14T08:13:08;10.13;;;3.72;;
24713;SDS011;12820;51.580;5.010;2023-06-14T08:18:12;10.18;;;3.65;;
24713;SDS011;12820;51.580;5.010;2023-06-14T08:23:14;14.65;;;3.60;;
24713;SDS011;12820;51.580;5.010;2023-06-14T08:28:17;9.65;;;3.47;;
24713;SDS011;12820;51.580;5.010;2023-06-14T08:33:19;6.18;;;3.50;;
24713;SDS011;12820;51.580;5.010;2023-06-14T08:38:22;6.43;;;3.17;;
24713;SDS011;12820;51.580;5.010;2023-06-14T08:43:24;9.20;;;3.00;;
24713;SDS011;12820;51.580;5.010;2023-06-14T08:48:26;7.30;;;3.40;;
24713;SDS011;12820;51.580;5.010;2023-06-14T08:53:32;8.93;;;3.17;;
24713;SDS011;12820;51.580;5.010;2023-06-14T08:58:42;9.90;;;3.22;;
24713;SDS011;12820;51.580;5.010;2023-06-14T09:03:46;6.13;;;3.10;;
24713;SDS011;12820;51.580;5.010;2023-06-14T09:08:50;8.15;;;2.90;;
24713;SDS011;12820;51.580;5.010;2023-06-14T09:13:52;7.82;;;2.67;;
24713;SDS011;12820;51.580;5.010;2023-06-14T09:18:55;8.30;;;2.92;;
24713;SDS011;12820;51.580;5.010;2023-06-14T09:24:01;7.00;;;2.88;;
24713;SDS011;12820;51.580;5.010;2023-06-14T09:29:04;6.22;;;2.40;;
24713;SDS011;12820;51.580;5.010;2023-06-14T09:34:08;4.97;;;2.42;;
24713;SDS011;12820;51.580;5.010;2023-06-14T09:39:16;4.28;;;2.40;;
24713;SDS011;12820;51.580;5.010;2023-06-14T09:44:19;4.78;;;2.15;;
24713;SDS011;12820;51.580;5.010;2023-06-14T09:49:23;6.15;;;2.50;;
24713;SDS011;12820;51.580;5.010;2023-06-14T09:54:27;6.60;;;2.17;;
24713;SDS011;12820;51.580;5.010;2023-06-14T09:59:31;5.95;;;2.00;;
24713;SDS011;12820;51.580;5.010;2023-06-14T10:04:34;4.20;;;1.88;;
24713;SDS011;12820;51.580;5.010;2023-06-14T10:09:36;5.70;;;1.95;;
24713;SDS011;12820;51.580;5.010;2023-06-14T10:14:39;7.55;;;1.90;;
24713;SDS011;12820;51.580;5.010;2023-06-14T10:19:48;6.78;;;1.70;;
24713;SDS011;12820;51.580;5.010;2023-06-14T10:24:56;6.45;;;1.60;;
24713;SDS011;12820;51.580;5.010;2023-06-14T10:35:05;3.30;;;1.27;;
24713;SDS011;12820;51.580;5.010;2023-06-14T10:40:08;5.45;;;1.30;;
24713;SDS011;12820;51.580;5.010;2023-06-14T10:45:31;4.18;;;1.20;;
24713;SDS011;12820;51.580;5.010;2023-06-14T10:50:33;3.03;;;1.17;;
24713;SDS011;12820;51.580;5.010;2023-06-14T10:55:36;3.33;;;1.30;;
24713;SDS011;12820;51.580;5.010;2023-06-14T11:00:38;2.63;;;1.08;;
24713;SDS011;12820;51.580;5.010;2023-06-14T11:10:49;3.25;;;1.08;;
24713;SDS011;12820;51.580;5.010;2023-06-14T11:15:52;6.50;;;1.25;;
24713;SDS011;12820;51.580;5.010;2023-06-14T11:20:59;2.97;;;1.20;;
24713;SDS011;12820;51.580;5.010;2023-06-14T11:26:03;6.93;;;1.40;;
24713;SDS011;12820;51.580;5.010;2023-06-14T11:31:07;3.92;;;1.35;;
24713;SDS011;12820;51.580;5.010;2023-06-14T11:36:09;7.72;;;1.35;;
24713;SDS011;12820;51.580;5.010;2023-06-14T11:41:12;3.15;;;1.33;;
24713;SDS011;12820;51.580;5.010;2023-06-14T11:46:14;3.47;;;1.40;;
24713;SDS011;12820;51.580;5.010;2023-06-14T11:51:18;4.05;;;1.35;;
24713;SDS011;12820;51.580;5.010;2023-06-14T11:56:21;2.60;;;1.27;;
24713;SDS011;12820;51.580;5.010;2023-06-14T12:01:23;4.03;;;1.42;;
24713;SDS011;12820;51.580;5.010;2023-06-14T12:06:26;4.22;;;1.58;;
24713;SDS011;12820;51.580;5.010;2023-06-14T12:11:35;5.28;;;1.23;;
24713;SDS011;12820;51.580;5.010;2023-06-14T12:16:39;5.38;;;1.60;;
24713;SDS011;12820;51.580;5.010;2023-06-14T12:21:48;8.82;;;1.20;;
24713;SDS011;12820;51.580;5.010;2023-06-14T12:26:51;4.57;;;1.15;;
24713;SDS011;12820;51.580;5.010;2023-06-14T12:31:54;3.78;;;1.45;;
24713;SDS011;12820;51.580;5.010;2023-06-14T12:36:58;6.05;;;1.10;;
24713;SDS011;12820;51.580;5.010;2023-06-14T12:42:01;2.92;;;1.20;;
24713;SDS011;12820;51.580;5.010;2023-06-14T12:47:06;4.03;;;1.35;;
24713;SDS011;12820;51.580;5.010;2023-06-14T12:52:09;5.38;;;1.25;;
24713;SDS011;12820;51.580;5.010;2023-06-14T12:57:11;4.53;;;1.40;;
24713;SDS011;12820;51.580;5.010;2023-06-14T13:02:14;2.97;;;1.40;;
24713;SDS011;12820;51.580;5.010;2023-06-14T13:07:18;4.20;;;1.15;;
24713;SDS011;12820;51.580;5.010;2023-06-14T13:12:20;4.07;;;1.15;;
24713;SDS011;12820;51.580;5.010;2023-06-14T13:17:22;3.30;;;1.13;;
24713;SDS011;12820;51.580;5.010;2023-06-14T13:22:25;4.38;;;1.15;;
24713;SDS011;12820;51.580;5.010;2023-06-14T13:27:27;3.85;;;0.95;;
24713;SDS011;12820;51.580;5.010;2023-06-14T13:32:29;3.15;;;1.23;;
24713;SDS011;12820;51.580;5.010;2023-06-14T13:37:32;8.70;;;1.48;;
24713;SDS011;12820;51.580;5.010;2023-06-14T13:42:34;4.88;;;1.20;;
24713;SDS011;12820;51.580;5.010;2023-06-14T13:47:37;3.90;;;1.38;;
24713;SDS011;12820;51.580;5.010;2023-06-14T13:52:40;2.60;;;1.23;;
24713;SDS011;12820;51.580;5.010;2023-06-14T13:57:42;4.13;;;1.30;;
24713;SDS011;12820;51.580;5.010;2023-06-14T14:02:44;3.50;;;1.20;;
24713;SDS011;12820;51.580;5.010;2023-06-14T14:07:46;2.60;;;1.13;;
24713;SDS011;12820;51.580;5.010;2023-06-14T14:12:49;4.60;;;1.20;;
24713;SDS011;12820;51.580;5.010;2023-06-14T14:17:51;3.25;;;1.17;;
24713;SDS011;12820;51.580;5.010;2023-06-14T14:22:53;4.68;;;1.10;;
24713;SDS011;12820;51.580;5.010;2023-06-14T14:27:55;3.40;;;1.17;;
24713;SDS011;12820;51.580;5.010;2023-06-14T14:32:58;3.63;;;1.20;;
24713;SDS011;12820;51.580;5.010;2023-06-14T14:38:00;3.45;;;0.85;;
24713;SDS011;12820;51.580;5.010;2023-06-14T14:43:02;3.55;;;1.00;;
24713;SDS011;12820;51.580;5.010;2023-06-14T14:48:04;2.30;;;0.90;;
24713;SDS011;12820;51.580;5.010;2023-06-14T14:53:07;4.55;;;1.00;;
24713;SDS011;12820;51.580;5.010;2023-06-14T14:58:09;3.67;;;1.00;;
24713;SDS011;12820;51.580;5.010;2023-06-14T15:03:11;4.78;;;1.00;;
24713;SDS011;12820;51.580;5.010;2023-06-14T15:08:14;7.97;;;1.38;;
24713;SDS011;12820;51.580;5.010;2023-06-14T15:13:16;3.08;;;1.00;;
24713;SDS011;12820;51.580;5.010;2023-06-14T15:18:18;3.30;;;1.10;;
24713;SDS011;12820;51.580;5.010;2023-06-14T15:23:22;3.13;;;1.00;;
24713;SDS011;12820;51.580;5.010;2023-06-14T15:28:24;2.40;;;1.00;;
24713;SDS011;12820;51.580;5.010;2023-06-14T15:33:30;2.92;;;0.95;;
24713;SDS011;12820;51.580;5.010;2023-06-14T15:38:33;5.38;;;1.00;;
24713;SDS011;12820;51.580;5.010;2023-06-14T15:43:36;2.95;;;1.02;;
24713;SDS011;12820;51.580;5.010;2023-06-14T15:48:39;6.45;;;1.10;;
24713;SDS011;12820;51.580;5.010;2023-06-14T15:53:42;1.60;;;0.80;;
24713;SDS011;12820;51.580;5.010;2023-06-14T15:58:44;2.80;;;0.88;;
24713;SDS011;12820;51.580;5.010;2023-06-14T16:03:46;4.22;;;0.90;;
24713;SDS011;12820;51.580;5.010;2023-06-14T16:08:49;3.67;;;0.90;;
24713;SDS011;12820;51.580;5.010;2023-06-14T16:13:51;2.58;;;0.80;;
24713;SDS011;12820;51.580;5.010;2023-06-14T16:18:53;4.55;;;0.95;;
24713;SDS011;12820;51.580;5.010;2023-06-14T16:23:56;2.65;;;1.00;;
24713;SDS011;12820;51.580;5.010;2023-06-14T16:28:58;4.70;;;1.00;;
24713;SDS011;12820;51.580;5.010;2023-06-14T16:34:00;7.40;;;1.00;;
24713;SDS011;12820;51.580;5.010;2023-06-14T16:39:03;3.78;;;0.95;;
24713;SDS011;12820;51.580;5.010;2023-06-14T16:44:05;3.03;;;0.95;;
24713;SDS011;12820;51.580;5.010;2023-06-14T16:49:07;3.78;;;0.93;;
24713;SDS011;12820;51.580;5.010;2023-06-14T16:54:10;3.17;;;1.10;;
24713;SDS011;12820;51.580;5.010;2023-06-14T16:59:12;2.65;;;0.88;;
24713;SDS011;12820;51.580;5.010;2023-06-14T17:04:14;2.92;;;0.98;;
24713;SDS011;12820;51.580;5.010;2023-06-14T17:09:16;6.10;;;1.00;;
24713;SDS011;12820;51.580;5.010;2023-06-14T17:14:18;3.33;;;0.80;;
24713;SDS011;12820;51.580;5.010;2023-06-14T17:19:20;2.70;;;1.20;;
24713;SDS011;12820;51.580;5.010;2023-06-14T17:24:23;4.90;;;1.45;;
24713;SDS011;12820;51.580;5.010;2023-06-14T17:29:27;3.70;;;1.10;;
24713;SDS011;12820;51.580;5.010;2023-06-14T17:34:29;2.47;;;1.00;;
24713;SDS011;12820;51.580;5.010;2023-06-14T17:39:31;4.38;;;0.90;;
24713;SDS011;12820;51.580;5.010;2023-06-14T17:44:34;2.95;;;0.90;;
24713;SDS011;12820;51.580;5.010;2023-06-14T17:49:36;3.42;;;1.05;;
24713;SDS011;12820;51.580;5.010;2023-06-14T17:54:38;3.53;;;1.13;;
24713;SDS011;12820;51.580;5.010;2023-06-14T17:59:41;2.20;;;0.90;;
24713;SDS011;12820;51.580;5.010;2023-06-14T18:04:44;2.30;;;1.00;;
24713;SDS011;12820;51.580;5.010;2023-06-14T18:09:46;2.40;;;1.00;;
24713;SDS011;12820;51.580;5.010;2023-06-14T18:14:49;3.55;;;1.08;;
24713;SDS011;12820;51.580;5.010;2023-06-14T18:19:53;1.88;;;0.90;;
24713;SDS011;12820;51.580;5.010;2023-06-14T18:24:55;2.97;;;1.27;;
24713;SDS011;12820;51.580;5.010;2023-06-14T18:29:57;5.68;;;1.30;;
24713;SDS011;12820;51.580;5.010;2023-06-14T18:34:59;3.42;;;1.20;;
24713;SDS011;12820;51.580;5.010;2023-06-14T18:40:02;4.28;;;1.38;;
24713;SDS011;12820;51.580;5.010;2023-06-14T18:45:04;4.30;;;1.88;;
24713;SDS011;12820;51.580;5.010;2023-06-14T18:50:07;5.40;;;1.48;;
24713;SDS011;12820;51.580;5.010;2023-06-14T18:55:10;3.83;;;1.70;;
24713;SDS011;12820;51.580;5.010;2023-06-14T19:00:12;4.50;;;1.67;;
24713;SDS011;12820;51.580;5.010;2023-06-14T19:05:15;3.83;;;1.83;;
24713;SDS011;12820;51.580;5.010;2023-06-14T19:10:18;5.18;;;1.83;;
24713;SDS011;12820;51.580;5.010;2023-06-14T19:15:20;2.75;;;1.45;;
24713;SDS011;12820;51.580;5.010;2023-06-14T19:20:22;6.30;;;2.03;;
24713;SDS011;12820;51.580;5.010;2023-06-14T19:25:25;3.20;;;1.75;;
24713;SDS011;12820;51.580;5.010;2023-06-14T19:30:27;4.13;;;1.88;;
24713;SDS011;12820;51.580;5.010;2023-06-14T19:35:29;4.50;;;2.00;;
24713;SDS011;12820;51.580;5.010;2023-06-14T19:40:32;4.57;;;2.08;;
24713;SDS011;12820;51.580;5.010;2023-06-14T19:45:34;7.88;;;1.73;;
24713;SDS011;12820;51.580;5.010;2023-06-14T19:50:37;4.85;;;1.98;;
24713;SDS011;12820;51.580;5.010;2023-06-14T19:55:39;4.03;;;1.92;;
24713;SDS011;12820;51.580;5.010;2023-06-14T20:00:41;7.63;;;2.17;;
24713;SDS011;12820;51.580;5.010;2023-06-14T20:05:43;4.63;;;2.03;;
24713;SDS011;12820;51.580;5.010;2023-06-14T20:10:46;4.30;;;2.25;;
24713;SDS011;12820;51.580;5.010;2023-06-14T20:15:48;4.28;;;2.22;;
24713;SDS011;12820;51.580;5.010;2023-06-14T20:20:50;4.05;;;2.10;;
24713;SDS011;12820;51.580;5.010;2023-06-14T20:25:53;4.43;;;2.30;;
24713;SDS011;12820;51.580;5.010;2023-06-14T20:30:55;5.57;;;1.92;;
24713;SDS011;12820;51.580;5.010;2023-06-14T20:35:57;6.72;;;2.33;;
24713;SDS011;12820;51.580;5.010;2023-06-14T20:40:59;4.28;;;2.35;;
24713;SDS011;12820;51.580;5.010;2023-06-14T20:46:01;6.45;;;2.17;;
24713;SDS011;12820;51.580;5.010;2023-06-14T20:51:04;5.15;;;2.05;;
24713;SDS011;12820;51.580;5.010;2023-06-14T20:56:06;5.75;;;2.13;;
24713;SDS011;12820;51.580;5.010;2023-06-14T21:01:08;7.78;;;2.63;;
24713;SDS011;12820;51.580;5.010;2023-06-14T21:06:10;4.80;;;2.40;;
24713;SDS011;12820;51.580;5.010;2023-06-14T21:11:13;4.35;;;2.50;;
24713;SDS011;12820;51.580;5.010;2023-06-14T21:16:15;6.07;;;2.35;;
24713;SDS011;12820;51.580;5.010;2023-06-14T21:21:17;5.93;;;2.53;;
24713;SDS011;12820;51.580;5.010;2023-06-14T21:26:19;10.20;;;2.55;;
24713;SDS011;12820;51.580;5.010;2023-06-14T21:31:24;5.22;;;2.47;;
24713;SDS011;12820;51.580;5.010;2023-06-14T21:36:26;4.40;;;2.03;;
24713;SDS011;12820;51.580;5.010;2023-06-14T21:41:29;6.68;;;2.30;;
24713;SDS011;12820;51.580;5.010;2023-06-14T21:46:31;4.68;;;2.13;;
24713;SDS011;12820;51.580;5.010;2023-06-14T21:51:33;6.72;;;2.40;;
24713;SDS011;12820;51.580;5.010;2023-06-14T21:56:36;5.13;;;2.50;;
24713;SDS011;12820;51.580;5.010;2023-06-14T22:01:38;9.07;;;2.50;;
24713;SDS011;12820;51.580;5.010;2023-06-14T22:06:40;5.05;;;2.63;;
24713;SDS011;12820;51.580;5.010;2023-06-14T22:11:46;6.05;;;2.47;;
24713;SDS011;12820;51.580;5.010;2023-06-14T22:16:51;4.63;;;2.40;;
24713;SDS011;12820;51.580;5.010;2023-06-14T22:21:54;5.05;;;2.50;;
24713;SDS011;12820;51.580;5.010;2023-06-14T22:26:59;5.03;;;2.45;;
24713;SDS011;12820;51.580;5.010;2023-06-14T22:32:01;5.82;;;2.60;;
24713;SDS011;12820;51.580;5.010;2023-06-14T22:37:04;5.47;;;2.30;;
24713;SDS011;12820;51.580;5.010;2023-06-14T22:42:07;4.85;;;2.50;;
24713;SDS011;12820;51.580;5.010;2023-06-14T22:47:10;4.47;;;2.60;;
24713;SDS011;12820;51.580;5.010;2023-06-14T22:52:14;4.60;;;2.30;;
24713;SDS011;12820;51.580;5.010;2023-06-14T22:57:16;4.03;;;2.38;;
24713;SDS011;12820;51.580;5.010;2023-06-14T23:02:21;5.25;;;2.38;;
24713;SDS011;12820;51.580;5.010;2023-06-14T23:07:26;5.57;;;2.63;;
24713;SDS011;12820;51.580;5.010;2023-06-14T23:12:31;4.68;;;2.45;;
24713;SDS011;12820;51.580;5.010;2023-06-14T23:17:35;6.88;;;2.70;;
24713;SDS011;12820;51.580;5.010;2023-06-14T23:22:42;5.15;;;2.58;;
24713;SDS011;12820;51.580;5.010;2023-06-14T23:27:45;4.15;;;2.40;;
24713;SDS011;12820;51.580;5.010;2023-06-14T23:32:47;5.65;;;2.50;;
24713;SDS011;12820;51.580;5.010;2023-06-14T23:37:52;4.10;;;2.47;;
24713;SDS011;12820;51.580;5.010;2023-06-14T23:42:55;4.32;;;2.75;;
24713;SDS011;12820;51.580;5.010;2023-06-14T23:47:57;4.70;;;2.78;;
24713;SDS011;12820;51.580;5.010;2023-06-14T23:52:59;5.43;;;2.60;;
24713;SDS011;12820;51.580;5.010;2023-06-14T23:58:03;6.03;;;2.88;;
